createdAt,value
2019-04-30T00:00:46.479Z,23.53
2019-04-30T00:02:03.072Z,23.40
2019-04-30T00:03:32.078Z,22.63
2019-04-30T00:04:42.136Z,26.00
2019-04-30T00:05:49.347Z,24.60
2019-04-30T00:06:57.823Z,23.80
2019-04-30T00:08:05.855Z,24.70
2019-04-30T00:09:19.058Z,22.17
2019-04-30T00:10:29.478Z,23.10
2019-04-30T00:11:32.905Z,23.27
2019-04-30T00:12:39.785Z,22.20
2019-04-30T00:13:50.172Z,22.43
2019-04-30T00:14:55.135Z,25.23
2019-04-30T00:16:02.229Z,23.63
2019-04-30T00:17:10.695Z,22.77
2019-04-30T00:18:17.522Z,24.13
2019-04-30T00:19:25.891Z,23.23
2019-04-30T00:20:35.174Z,24.13
2019-04-30T00:21:42.121Z,23.27
2019-04-30T00:22:50.457Z,22.70
2019-04-30T00:24:00.802Z,23.57
2019-04-30T00:25:06.520Z,24.60
2019-04-30T00:26:16.984Z,24.33
2019-04-30T00:27:28.327Z,23.80
2019-04-30T00:28:30.581Z,23.37
2019-04-30T00:29:38.013Z,26.90
2019-04-30T00:30:47.769Z,26.43
2019-04-30T00:31:59.288Z,24.47
2019-04-30T00:33:02.732Z,25.20
2019-04-30T00:34:09.846Z,26.10
2019-04-30T00:35:19.595Z,24.73
2019-04-30T00:36:27.541Z,25.27
2019-04-30T00:37:35.250Z,24.30
2019-04-30T00:38:42.128Z,25.63
2019-04-30T00:39:51.153Z,23.90
2019-04-30T00:41:01.643Z,25.40
2019-04-30T00:42:06.232Z,23.90
2019-04-30T00:43:13.051Z,24.03
2019-04-30T00:44:24.791Z,23.50
2019-04-30T00:45:31.392Z,23.60
2019-04-30T00:46:38.524Z,24.07
2019-04-30T00:47:47.891Z,27.77
2019-04-30T00:48:55.684Z,22.67
2019-04-30T00:50:02.701Z,25.30
2019-04-30T00:51:17.901Z,23.27
2019-04-30T00:52:18.319Z,24.27
2019-04-30T00:53:26.210Z,24.37
2019-04-30T00:54:33.117Z,23.77
2019-04-30T00:55:44.222Z,22.33
2019-04-30T00:56:48.886Z,22.07
2019-04-30T00:57:55.867Z,23.07
2019-04-30T00:59:07.022Z,22.57
2019-04-30T01:00:19.656Z,22.93
2019-04-30T01:01:48.084Z,24.10
2019-04-30T01:03:09.311Z,23.43
2019-04-30T01:04:24.499Z,23.17
2019-04-30T01:05:28.614Z,24.03
2019-04-30T01:06:35.794Z,24.60
2019-04-30T01:07:48.705Z,24.27
2019-04-30T01:08:51.614Z,23.73
2019-04-30T01:09:58.837Z,22.20
2019-04-30T01:11:09.397Z,24.40
2019-04-30T01:12:17.463Z,23.63
2019-04-30T01:13:23.623Z,23.40
2019-04-30T01:14:31.980Z,23.27
2019-04-30T01:15:39.384Z,23.93
2019-04-30T01:16:46.480Z,24.80
2019-04-30T01:17:53.995Z,23.00
2019-04-30T01:19:05.706Z,25.47
2019-04-30T01:20:10.365Z,24.47
2019-04-30T01:21:18.502Z,24.07
2019-04-30T01:22:29.172Z,23.97
2019-04-30T01:23:34.613Z,24.90
2019-04-30T01:24:41.415Z,26.73
2019-04-30T01:25:51.269Z,25.93
2019-04-30T01:27:00.727Z,24.07
2019-04-30T01:28:05.350Z,24.07
2019-04-30T01:29:12.556Z,23.67
2019-04-30T01:30:22.701Z,25.27
2019-04-30T01:31:31.711Z,23.93
2019-04-30T01:32:37.074Z,25.00
2019-04-30T01:33:43.810Z,25.17
2019-04-30T01:34:53.896Z,25.27
2019-04-30T01:35:59.663Z,26.23
2019-04-30T01:37:06.596Z,23.40
2019-04-30T01:38:13.846Z,24.50
2019-04-30T01:39:23.664Z,25.00
2019-04-30T01:40:29.902Z,23.37
2019-04-30T01:41:36.657Z,23.70
2019-04-30T01:42:50.305Z,23.30
2019-04-30T01:43:54.335Z,26.13
2019-04-30T01:45:01.476Z,24.33
2019-04-30T01:46:13.693Z,24.90
2019-04-30T01:47:21.535Z,24.90
2019-04-30T01:48:26.292Z,23.97
2019-04-30T01:49:42.170Z,23.77
2019-04-30T01:50:42.266Z,22.67
2019-04-30T01:51:52.883Z,24.23
2019-04-30T01:52:59.065Z,25.63
2019-04-30T01:54:06.045Z,24.03
2019-04-30T01:55:12.899Z,25.87
2019-04-30T01:56:49.823Z,24.83
2019-04-30T01:58:22.281Z,22.93
2019-04-30T01:59:35.331Z,24.10
2019-04-30T02:00:49.429Z,24.37
2019-04-30T02:01:58.580Z,25.13
2019-04-30T02:03:05.745Z,23.40
2019-04-30T02:04:13.024Z,24.73
2019-04-30T02:05:19.769Z,25.40
2019-04-30T02:06:26.500Z,22.90
2019-04-30T02:07:33.332Z,24.03
2019-04-30T02:08:40.106Z,24.00
2019-04-30T02:09:48.815Z,24.13
2019-04-30T02:10:55.638Z,23.40
2019-04-30T02:12:02.395Z,24.07
2019-04-30T02:13:09.561Z,22.70
2019-04-30T02:14:18.896Z,24.67
2019-04-30T02:15:25.141Z,23.93
2019-04-30T02:16:31.900Z,24.20
2019-04-30T02:17:38.901Z,23.40
2019-04-30T02:18:45.768Z,23.37
2019-04-30T02:19:56.661Z,23.50
2019-04-30T02:21:01.357Z,24.87
2019-04-30T02:22:09.515Z,25.47
2019-04-30T02:23:16.423Z,24.97
2019-04-30T02:24:23.546Z,23.83
2019-04-30T02:25:30.312Z,24.50
2019-04-30T02:26:38.470Z,23.80
2019-04-30T02:27:45.772Z,24.67
2019-04-30T02:28:52.541Z,25.80
2019-04-30T02:30:02.564Z,24.20
2019-04-30T02:31:09.226Z,24.57
2019-04-30T02:32:16.637Z,25.63
2019-04-30T02:33:23.394Z,25.63
2019-04-30T02:34:40.166Z,25.03
2019-04-30T02:36:04.008Z,24.37
2019-04-30T02:37:15.277Z,23.50
2019-04-30T02:38:26.346Z,24.83
2019-04-30T02:39:33.112Z,23.60
2019-04-30T02:40:42.634Z,23.80
2019-04-30T02:41:50.782Z,24.77
2019-04-30T02:43:01.611Z,24.23
2019-04-30T02:44:09.716Z,25.00
2019-04-30T02:45:16.794Z,24.80
2019-04-30T02:46:26.276Z,23.50
2019-04-30T02:47:35.825Z,24.80
2019-04-30T02:48:46.029Z,23.77
2019-04-30T02:50:10.225Z,26.60
2019-04-30T02:51:10.059Z,23.67
2019-04-30T02:52:19.620Z,24.57
2019-04-30T02:54:10.264Z,24.73
2019-04-30T02:55:24.390Z,23.27
2019-04-30T02:56:31.647Z,23.93
2019-04-30T02:57:40.126Z,24.27
2019-04-30T02:58:50.196Z,25.10
2019-04-30T03:00:13.283Z,24.00
2019-04-30T03:01:20.501Z,23.80
2019-04-30T03:02:29.270Z,24.37
2019-04-30T03:03:36.057Z,25.33
2019-04-30T03:04:42.807Z,26.17
2019-04-30T03:05:49.773Z,24.90
2019-04-30T03:06:59.545Z,24.70
2019-04-30T03:08:05.362Z,23.60
2019-04-30T03:09:12.151Z,28.33
2019-04-30T03:10:19.864Z,24.63
2019-04-30T03:11:29.843Z,22.23
2019-04-30T03:12:35.381Z,24.70
2019-04-30T03:13:42.915Z,24.93
2019-04-30T03:14:50.272Z,22.10
2019-04-30T03:15:59.326Z,24.90
2019-04-30T03:17:16.291Z,23.07
2019-04-30T03:18:30.880Z,23.97
2019-04-30T03:20:05.766Z,22.83
2019-04-30T03:21:19.204Z,22.10
2019-04-30T03:22:29.985Z,23.83
2019-04-30T03:23:38.955Z,22.30
2019-04-30T03:24:44.991Z,23.57
2019-04-30T03:25:52.620Z,24.13
2019-04-30T03:26:59.589Z,24.77
2019-04-30T03:28:06.441Z,22.87
2019-04-30T03:29:13.737Z,23.60
2019-04-30T03:30:21.794Z,24.27
2019-04-30T03:31:32.322Z,23.67
2019-04-30T03:32:42.574Z,23.70
2019-04-30T03:33:46.057Z,23.87
2019-04-30T03:34:53.227Z,23.50
2019-04-30T03:36:02.333Z,23.47
2019-04-30T03:37:09.940Z,23.10
2019-04-30T03:38:16.980Z,23.93
2019-04-30T03:39:23.731Z,22.13
2019-04-30T03:40:30.649Z,24.20
2019-04-30T03:41:40.446Z,20.60
2019-04-30T03:42:46.048Z,23.47
2019-04-30T03:43:52.781Z,23.60
2019-04-30T03:44:59.668Z,23.27
2019-04-30T03:46:09.634Z,22.50
2019-04-30T03:47:15.484Z,21.97
2019-04-30T03:48:22.551Z,21.47
2019-04-30T03:49:30.367Z,19.77
2019-04-30T03:50:50.239Z,21.40
2019-04-30T03:51:46.117Z,19.20
2019-04-30T03:52:53.235Z,21.33
2019-04-30T03:54:00.719Z,23.00
2019-04-30T03:55:09.303Z,20.10
2019-04-30T03:56:20.013Z,22.53
2019-04-30T03:57:25.153Z,22.10
2019-04-30T03:58:32.407Z,22.33
2019-04-30T03:59:39.859Z,21.63
2019-04-30T04:01:00.419Z,21.77
2019-04-30T04:02:24.839Z,22.03
2019-04-30T04:03:33.801Z,21.57
2019-04-30T04:04:52.715Z,22.03
2019-04-30T04:06:21.288Z,23.60
2019-04-30T04:07:43.431Z,21.83
2019-04-30T04:09:01.921Z,22.17
2019-04-30T04:10:25.195Z,21.50
2019-04-30T04:11:36.350Z,20.87
2019-04-30T04:12:43.143Z,21.97
2019-04-30T04:13:49.888Z,21.90
2019-04-30T04:14:56.639Z,22.87
2019-04-30T04:16:03.431Z,23.90
2019-04-30T04:17:10.524Z,23.97
2019-04-30T04:18:20.042Z,21.03
2019-04-30T04:19:29.107Z,22.20
2019-04-30T04:20:35.374Z,22.07
2019-04-30T04:21:42.198Z,21.27
2019-04-30T04:22:49.648Z,22.57
2019-04-30T04:23:56.707Z,21.57
2019-04-30T04:25:03.485Z,19.73
2019-04-30T04:26:10.824Z,21.93
2019-04-30T04:27:19.327Z,22.63
2019-04-30T04:28:26.534Z,21.87
2019-04-30T04:29:33.700Z,23.90
2019-04-30T04:30:42.969Z,21.50
2019-04-30T04:31:50.327Z,22.97
2019-04-30T04:32:59.690Z,23.00
2019-04-30T04:34:06.349Z,22.70
2019-04-30T04:35:13.493Z,23.30
2019-04-30T04:36:20.678Z,21.63
2019-04-30T04:37:29.830Z,23.40
2019-04-30T04:38:36.265Z,23.27
2019-04-30T04:39:43.341Z,25.10
2019-04-30T04:40:50.414Z,24.63
2019-04-30T04:41:59.957Z,23.87
2019-04-30T04:43:06.722Z,21.80
2019-04-30T04:44:13.468Z,20.70
2019-04-30T04:45:20.596Z,22.40
2019-04-30T04:46:30.556Z,23.20
2019-04-30T04:47:37.091Z,24.07
2019-04-30T04:48:44.568Z,24.07
2019-04-30T04:49:53.816Z,22.93
2019-04-30T04:51:00.505Z,23.57
2019-04-30T04:52:07.293Z,23.70
2019-04-30T04:53:14.156Z,23.43
2019-04-30T04:54:20.889Z,22.90
2019-04-30T04:55:30.019Z,24.33
2019-04-30T04:56:36.472Z,23.30
2019-04-30T04:57:43.502Z,23.93
2019-04-30T04:58:50.413Z,22.73
2019-04-30T05:00:02.376Z,22.67
2019-04-30T05:01:05.925Z,23.00
2019-04-30T05:02:39.649Z,23.50
2019-04-30T05:03:48.937Z,23.00
2019-04-30T05:04:55.739Z,22.70
2019-04-30T05:06:02.940Z,23.30
2019-04-30T05:07:09.837Z,22.80
2019-04-30T05:08:18.485Z,23.20
2019-04-30T05:09:25.116Z,21.77
2019-04-30T05:10:32.247Z,24.07
2019-04-30T05:11:39.609Z,23.67
2019-04-30T05:12:50.654Z,24.77
2019-04-30T05:13:56.350Z,22.90
2019-04-30T05:15:03.154Z,24.37
2019-04-30T05:16:09.986Z,22.27
2019-04-30T05:17:17.062Z,23.77
2019-04-30T05:18:23.818Z,24.03
2019-04-30T05:19:31.024Z,22.83
2019-04-30T05:20:39.916Z,24.60
2019-04-30T05:21:47.008Z,24.73
2019-04-30T05:22:54.073Z,24.87
2019-04-30T05:24:00.872Z,25.97
2019-04-30T05:25:08.839Z,22.53
2019-04-30T05:26:15.842Z,26.50
2019-04-30T05:27:22.595Z,24.30
2019-04-30T05:28:30.103Z,23.60
2019-04-30T05:29:38.657Z,23.87
2019-04-30T05:30:45.580Z,24.90
2019-04-30T05:31:52.766Z,24.40
2019-04-30T05:32:59.566Z,25.70
2019-04-30T05:34:10.135Z,24.43
2019-04-30T05:35:15.212Z,23.90
2019-04-30T05:36:22.520Z,24.90
2019-04-30T05:37:29.609Z,24.20
2019-04-30T05:38:36.661Z,24.57
2019-04-30T05:39:43.417Z,22.83
2019-04-30T05:40:50.183Z,25.33
2019-04-30T05:41:58.933Z,25.37
2019-04-30T05:43:06.211Z,26.27
2019-04-30T05:44:12.953Z,23.57
2019-04-30T05:45:20.061Z,24.60
2019-04-30T05:46:27.031Z,23.80
2019-04-30T05:47:33.790Z,23.60
2019-04-30T05:48:40.528Z,23.40
2019-04-30T05:49:48.898Z,24.70
2019-04-30T05:50:56.280Z,23.43
2019-04-30T05:52:03.186Z,24.00
2019-04-30T05:53:10.731Z,23.37
2019-04-30T05:54:19.022Z,22.70
2019-04-30T05:55:26.530Z,24.47
2019-04-30T05:56:34.254Z,24.90
2019-04-30T05:57:53.118Z,24.27
2019-04-30T05:58:49.817Z,23.80
2019-04-30T05:59:58.481Z,22.67
2019-04-30T06:01:05.419Z,22.60
2019-04-30T06:02:12.201Z,23.47
2019-04-30T06:03:27.974Z,21.90
2019-04-30T06:04:29.402Z,24.83
2019-04-30T06:05:36.683Z,22.83
2019-04-30T06:06:43.861Z,24.93
2019-04-30T06:07:52.034Z,22.30
2019-04-30T06:09:33.670Z,22.57
2019-04-30T06:11:06.393Z,22.70
2019-04-30T06:12:44.754Z,21.43
2019-04-30T06:14:10.358Z,19.30
2019-04-30T06:15:48.984Z,20.40
2019-04-30T06:17:10.642Z,19.90
2019-04-30T06:18:18.545Z,19.90
2019-04-30T06:19:25.842Z,20.30
2019-04-30T06:20:32.639Z,20.33
2019-04-30T06:21:39.610Z,19.63
2019-04-30T06:22:46.715Z,19.07
2019-04-30T06:23:53.789Z,19.03
2019-04-30T06:25:00.584Z,17.10
2019-04-30T06:26:10.671Z,18.63
2019-04-30T06:27:18.916Z,19.83
2019-04-30T06:28:25.673Z,20.43
2019-04-30T06:29:33.125Z,19.60
2019-04-30T06:30:40.368Z,18.80
2019-04-30T06:31:48.635Z,19.87
2019-04-30T06:32:56.629Z,17.80
2019-04-30T06:34:03.829Z,19.07
2019-04-30T06:35:13.073Z,19.20
2019-04-30T06:36:21.209Z,18.00
2019-04-30T06:37:31.390Z,18.33
2019-04-30T06:38:38.720Z,17.90
2019-04-30T06:39:45.974Z,19.03
2019-04-30T06:40:52.721Z,17.40
2019-04-30T06:42:07.174Z,18.13
2019-04-30T06:43:09.826Z,19.23
2019-04-30T06:44:19.392Z,18.30
2019-04-30T06:45:28.962Z,17.70
2019-04-30T06:46:38.654Z,17.63
2019-04-30T06:47:46.197Z,19.60
2019-04-30T06:48:54.809Z,18.73
2019-04-30T06:50:02.014Z,18.70
2019-04-30T06:51:09.157Z,18.27
2019-04-30T06:52:20.732Z,19.50
2019-04-30T06:53:24.761Z,18.73
2019-04-30T06:54:31.565Z,19.60
2019-04-30T06:55:39.167Z,19.07
2019-04-30T06:56:46.240Z,19.10
2019-04-30T06:57:52.978Z,20.30
2019-04-30T06:59:00.053Z,19.17
2019-04-30T07:00:09.799Z,18.73
2019-04-30T07:01:16.685Z,19.43
2019-04-30T07:02:23.424Z,19.20
2019-04-30T07:03:30.925Z,17.20
2019-04-30T07:04:40.021Z,17.60
2019-04-30T07:05:48.615Z,16.80
2019-04-30T07:06:55.701Z,18.20
2019-04-30T07:08:20.105Z,18.03
2019-04-30T07:09:43.540Z,17.90
2019-04-30T07:10:53.106Z,17.73
2019-04-30T07:12:09.155Z,16.40
2019-04-30T07:13:19.113Z,17.40
2019-04-30T07:14:25.844Z,17.80
2019-04-30T07:15:32.908Z,16.57
2019-04-30T07:16:39.807Z,17.33
2019-04-30T07:17:48.996Z,16.30
2019-04-30T07:18:55.406Z,17.60
2019-04-30T07:20:02.269Z,17.10
2019-04-30T07:21:09.006Z,16.43
2019-04-30T07:22:16.101Z,17.00
2019-04-30T07:23:23.278Z,17.40
2019-04-30T07:24:30.018Z,14.93
2019-04-30T07:25:38.971Z,17.87
2019-04-30T07:26:45.597Z,15.27
2019-04-30T07:27:52.746Z,16.90
2019-04-30T07:29:02.531Z,15.30
2019-04-30T07:30:09.943Z,16.13
2019-04-30T07:31:18.964Z,16.20
2019-04-30T07:32:25.751Z,16.90
2019-04-30T07:33:32.826Z,16.40
2019-04-30T07:34:39.623Z,17.87
2019-04-30T07:35:46.884Z,18.03
2019-04-30T07:37:10.831Z,16.77
2019-04-30T07:38:04.922Z,19.07
2019-04-30T07:39:12.750Z,17.53
2019-04-30T07:40:20.072Z,16.73
2019-04-30T07:41:30.794Z,16.97
2019-04-30T07:42:39.712Z,17.80
2019-04-30T07:43:44.508Z,16.90
2019-04-30T07:44:51.262Z,17.77
2019-04-30T07:45:59.816Z,18.07
2019-04-30T07:47:09.512Z,19.20
2019-04-30T07:48:15.805Z,17.60
2019-04-30T07:49:22.870Z,17.50
2019-04-30T07:50:31.311Z,17.20
2019-04-30T07:51:41.447Z,17.03
2019-04-30T07:53:00.666Z,18.33
2019-04-30T07:53:54.965Z,20.27
2019-04-30T07:55:02.081Z,19.00
2019-04-30T07:56:24.300Z,18.03
2019-04-30T07:57:19.193Z,18.10
2019-04-30T07:58:26.093Z,18.40
2019-04-30T07:59:33.237Z,18.93
2019-04-30T08:00:40.518Z,20.03
2019-04-30T08:03:03.130Z,19.40
2019-04-30T08:04:29.079Z,19.70
2019-04-30T08:05:40.159Z,20.30
2019-04-30T08:06:47.177Z,19.47
2019-04-30T08:07:54.128Z,18.97
2019-04-30T08:09:01.713Z,20.97
2019-04-30T08:09:36.849Z,20.30
2019-04-30T08:10:09.032Z,21.07
2019-04-30T08:11:23.869Z,21.43
2019-04-30T08:12:29.951Z,22.83
2019-04-30T08:13:33.838Z,19.53
2019-04-30T08:14:40.834Z,20.47
2019-04-30T08:15:49.554Z,21.27
2019-04-30T08:16:56.226Z,20.60
2019-04-30T08:18:05.858Z,22.90
2019-04-30T08:19:11.397Z,23.17
2019-04-30T08:20:19.644Z,21.40
2019-04-30T08:21:28.655Z,21.43
2019-04-30T08:22:35.459Z,21.70
2019-04-30T08:23:42.850Z,21.17
2019-04-30T08:24:49.586Z,20.63
2019-04-30T08:25:58.624Z,22.43
2019-04-30T08:27:05.824Z,22.33
2019-04-30T08:28:12.895Z,23.40
2019-04-30T08:29:19.986Z,20.87
2019-04-30T08:30:27.782Z,21.30
2019-04-30T08:31:35.622Z,22.17
2019-04-30T08:32:43.160Z,20.80
2019-04-30T08:33:49.925Z,21.67
2019-04-30T08:34:56.980Z,21.60
2019-04-30T08:36:04.492Z,21.13
2019-04-30T08:37:17.311Z,20.67
2019-04-30T08:38:19.745Z,20.63
2019-04-30T08:39:26.504Z,20.50
2019-04-30T08:40:33.627Z,21.30
2019-04-30T08:41:40.701Z,23.10
2019-04-30T08:42:49.340Z,22.63
2019-04-30T08:43:56.610Z,22.60
2019-04-30T08:45:03.681Z,22.40
2019-04-30T08:46:10.425Z,23.37
2019-04-30T08:47:20.898Z,22.70
2019-04-30T08:48:41.700Z,24.67
2019-04-30T08:49:35.135Z,23.27
2019-04-30T08:50:42.123Z,23.30
2019-04-30T08:51:49.757Z,24.73
2019-04-30T08:52:59.388Z,23.70
2019-04-30T08:54:05.772Z,25.30
2019-04-30T08:55:16.980Z,25.40
2019-04-30T08:56:22.851Z,26.17
2019-04-30T08:57:29.938Z,24.83
2019-04-30T08:58:38.657Z,25.73
2019-04-30T08:59:45.157Z,24.80
2019-04-30T09:00:52.503Z,25.50
2019-04-30T09:02:12.566Z,25.70
2019-04-30T09:03:09.371Z,24.77
2019-04-30T09:04:16.281Z,25.67
2019-04-30T09:05:31.200Z,25.47
2019-04-30T09:06:38.976Z,23.70
2019-04-30T09:07:48.266Z,23.00
2019-04-30T09:08:59.313Z,23.63
2019-04-30T09:10:06.747Z,23.10
2019-04-30T09:11:22.565Z,24.50
2019-04-30T09:12:21.917Z,23.93
2019-04-30T09:13:28.824Z,23.23
2019-04-30T09:14:35.694Z,21.70
2019-04-30T09:15:42.856Z,21.97
2019-04-30T09:16:51.370Z,22.87
2019-04-30T09:18:03.794Z,21.50
2019-04-30T09:19:07.059Z,21.10
2019-04-30T09:20:14.295Z,20.70
2019-04-30T09:21:21.285Z,21.00
2019-04-30T09:22:29.354Z,22.00
2019-04-30T09:23:47.472Z,21.80
2019-04-30T09:24:44.673Z,21.63
2019-04-30T09:25:51.568Z,22.00
2019-04-30T09:26:59.028Z,24.30
2019-04-30T09:28:06.031Z,23.77
2019-04-30T09:29:12.764Z,22.40
2019-04-30T09:30:19.979Z,23.90
2019-04-30T09:31:29.380Z,25.33
2019-04-30T09:32:35.943Z,24.27
2019-04-30T09:33:43.062Z,24.47
2019-04-30T09:34:50.138Z,24.00
2019-04-30T09:35:56.877Z,24.50
2019-04-30T09:37:03.632Z,24.33
2019-04-30T09:38:10.373Z,23.43
2019-04-30T09:39:17.138Z,24.40
2019-04-30T09:40:24.198Z,23.47
2019-04-30T09:41:30.954Z,23.53
2019-04-30T09:42:39.057Z,23.90
2019-04-30T09:43:46.209Z,24.27
2019-04-30T09:44:54.935Z,23.50
2019-04-30T09:46:01.850Z,22.57
2019-04-30T09:47:08.999Z,22.03
2019-04-30T09:48:15.863Z,21.70
2019-04-30T09:49:22.978Z,20.67
2019-04-30T09:50:30.153Z,22.43
2019-04-30T09:51:39.074Z,20.40
2019-04-30T09:52:45.419Z,21.60
2019-04-30T09:53:59.076Z,21.43
2019-04-30T09:55:01.550Z,21.30
2019-04-30T09:56:09.611Z,21.50
2019-04-30T09:57:19.142Z,20.90
2019-04-30T09:58:25.361Z,22.80
2019-04-30T09:59:32.946Z,21.67
2019-04-30T10:00:40.372Z,21.37
2019-04-30T10:01:47.183Z,21.17
2019-04-30T10:02:53.991Z,22.13
2019-04-30T10:04:01.895Z,21.90
2019-04-30T10:05:10.959Z,21.40
2019-04-30T10:06:19.025Z,22.60
2019-04-30T10:07:26.151Z,21.83
2019-04-30T10:08:45.187Z,20.57
2019-04-30T10:09:42.369Z,22.27
2019-04-30T10:11:20.009Z,19.37
2019-04-30T10:12:26.749Z,20.80
2019-04-30T10:13:33.526Z,19.20
2019-04-30T10:14:41.034Z,19.53
2019-04-30T10:16:07.268Z,19.50
2019-04-30T10:17:34.572Z,19.73
2019-04-30T10:18:41.323Z,19.53
2019-04-30T10:19:49.188Z,21.37
2019-04-30T10:20:56.130Z,19.97
2019-04-30T10:22:03.281Z,20.40
2019-04-30T10:23:10.065Z,21.40
2019-04-30T10:24:19.577Z,20.20
2019-04-30T10:25:25.755Z,20.60
2019-04-30T10:26:32.858Z,21.50
2019-04-30T10:27:39.624Z,19.83
2019-04-30T10:28:49.365Z,19.63
2019-04-30T10:29:56.519Z,20.57
2019-04-30T10:31:03.265Z,20.23
2019-04-30T10:32:10.702Z,20.40
2019-04-30T10:33:19.506Z,19.77
2019-04-30T10:34:26.785Z,19.00
2019-04-30T10:35:34.149Z,20.30
2019-04-30T10:36:41.481Z,20.27
2019-04-30T10:37:48.647Z,19.80
2019-04-30T10:38:55.444Z,20.63
2019-04-30T10:40:02.285Z,19.67
2019-04-30T10:41:09.066Z,18.10
2019-04-30T10:42:16.017Z,20.77
2019-04-30T10:43:23.173Z,20.57
2019-04-30T10:44:30.062Z,19.97
2019-04-30T10:45:38.788Z,19.37
2019-04-30T10:46:46.486Z,20.73
2019-04-30T10:47:53.236Z,20.33
2019-04-30T10:49:00.380Z,21.23
2019-04-30T10:50:09.880Z,20.33
2019-04-30T10:51:18.802Z,20.27
2019-04-30T10:52:25.575Z,19.43
2019-04-30T10:53:32.685Z,19.83
2019-04-30T10:54:39.466Z,19.83
2019-04-30T10:55:48.450Z,19.00
2019-04-30T10:56:55.947Z,17.73
2019-04-30T10:58:03.010Z,19.47
2019-04-30T10:59:09.750Z,18.90
2019-04-30T11:00:18.651Z,20.00
2019-04-30T11:01:25.983Z,19.70
2019-04-30T11:02:32.724Z,17.87
2019-04-30T11:03:42.748Z,19.57
2019-04-30T11:04:48.483Z,18.60
2019-04-30T11:05:55.830Z,19.70
2019-04-30T11:07:02.597Z,16.57
2019-04-30T11:08:09.368Z,17.63
2019-04-30T11:09:16.214Z,17.63
2019-04-30T11:10:25.158Z,16.27
2019-04-30T11:11:31.533Z,17.17
2019-04-30T11:12:39.192Z,16.10
2019-04-30T11:13:46.118Z,16.63
2019-04-30T11:14:52.930Z,14.93
2019-04-30T11:16:11.888Z,16.67
2019-04-30T11:17:09.900Z,16.53
2019-04-30T11:18:17.106Z,16.40
2019-04-30T11:19:26.624Z,17.97
2019-04-30T11:20:34.318Z,16.70
2019-04-30T11:21:41.511Z,17.03
2019-04-30T11:22:49.997Z,19.87
2019-04-30T11:23:59.482Z,16.67
2019-04-30T11:25:10.017Z,16.17
2019-04-30T11:26:17.714Z,17.10
2019-04-30T11:27:26.659Z,17.20
2019-04-30T11:28:34.047Z,17.73
2019-04-30T11:29:42.616Z,16.03
2019-04-30T11:30:52.385Z,17.40
2019-04-30T11:32:14.528Z,16.77
2019-04-30T11:33:23.558Z,17.00
2019-04-30T11:34:32.081Z,16.67
2019-04-30T11:35:39.508Z,16.47
2019-04-30T11:36:46.503Z,16.27
2019-04-30T11:37:54.799Z,15.17
2019-04-30T11:39:02.734Z,14.87
2019-04-30T11:40:13.437Z,14.80
2019-04-30T11:41:29.997Z,14.40
2019-04-30T11:42:28.803Z,15.47
2019-04-30T11:43:35.550Z,13.90
2019-04-30T11:44:42.312Z,13.60
2019-04-30T11:46:45.457Z,13.77
2019-04-30T11:47:53.525Z,14.90
2019-04-30T11:49:00.947Z,14.10
2019-04-30T11:50:13.776Z,15.27
2019-04-30T11:51:21.244Z,15.93
2019-04-30T11:52:28.290Z,15.53
2019-04-30T11:53:35.100Z,15.17
2019-04-30T11:54:49.012Z,14.80
2019-04-30T11:55:50.375Z,14.33
2019-04-30T11:56:58.846Z,16.33
2019-04-30T11:58:06.050Z,14.47
2019-04-30T11:59:12.859Z,16.33
2019-04-30T12:00:27.196Z,16.20
2019-04-30T12:01:34.267Z,15.17
2019-04-30T12:02:42.490Z,15.67
2019-04-30T12:03:49.797Z,16.10
2019-04-30T12:04:56.768Z,15.47
2019-04-30T12:06:03.713Z,16.03
2019-04-30T12:07:18.886Z,14.00
2019-04-30T12:08:29.624Z,14.50
2019-04-30T12:09:55.812Z,15.53
2019-04-30T12:11:15.171Z,14.50
2019-04-30T12:12:21.041Z,14.13
2019-04-30T12:13:29.962Z,14.13
2019-04-30T12:14:36.695Z,13.33
2019-04-30T12:15:44.512Z,15.13
2019-04-30T12:16:51.562Z,14.63
2019-04-30T12:17:58.674Z,14.20
2019-04-30T12:19:05.890Z,14.43
2019-04-30T12:20:14.112Z,13.80
2019-04-30T12:21:20.866Z,14.83
2019-04-30T12:22:29.602Z,14.07
2019-04-30T12:23:36.546Z,14.10
2019-04-30T12:24:43.293Z,13.63
2019-04-30T12:25:50.564Z,13.83
2019-04-30T12:26:57.673Z,14.50
2019-04-30T12:28:04.766Z,14.13
2019-04-30T12:29:12.169Z,14.27
2019-04-30T12:30:20.815Z,15.00
2019-04-30T12:31:29.646Z,14.53
2019-04-30T12:32:36.158Z,14.67
2019-04-30T12:33:43.453Z,14.47
2019-04-30T12:34:51.349Z,14.27
2019-04-30T12:35:59.596Z,13.53
2019-04-30T12:37:06.976Z,14.23
2019-04-30T12:38:14.223Z,14.97
2019-04-30T12:39:20.971Z,14.10
2019-04-30T12:40:30.064Z,16.10
2019-04-30T12:41:36.788Z,14.87
2019-04-30T12:42:43.551Z,13.87
2019-04-30T12:43:50.633Z,15.40
2019-04-30T12:44:59.422Z,14.07
2019-04-30T12:46:05.841Z,15.20
2019-04-30T12:47:12.606Z,14.23
2019-04-30T12:48:44.186Z,14.37
2019-04-30T12:50:03.180Z,14.13
2019-04-30T12:51:27.693Z,14.63
2019-04-30T12:52:56.792Z,13.33
2019-04-30T12:54:08.899Z,14.07
2019-04-30T12:55:33.781Z,15.50
2019-04-30T12:57:02.226Z,13.80
2019-04-30T12:58:09.865Z,13.97
2019-04-30T12:59:17.964Z,14.10
2019-04-30T13:00:24.702Z,14.10
2019-04-30T13:01:34.246Z,14.87
2019-04-30T13:02:40.727Z,14.50
2019-04-30T13:03:56.679Z,15.17
2019-04-30T13:04:56.438Z,14.70
2019-04-30T13:06:03.895Z,14.33
2019-04-30T13:07:12.462Z,13.80
2019-04-30T13:08:21.353Z,15.80
2019-04-30T13:09:30.290Z,13.13
2019-04-30T13:10:37.666Z,13.87
2019-04-30T13:11:45.278Z,15.40
2019-04-30T13:12:53.373Z,14.10
2019-04-30T13:14:01.392Z,16.47
2019-04-30T13:15:11.098Z,15.97
2019-04-30T13:16:19.387Z,14.50
2019-04-30T13:17:26.952Z,14.93
2019-04-30T13:18:34.057Z,14.23
2019-04-30T13:19:40.807Z,14.90
2019-04-30T13:20:48.978Z,14.53
2019-04-30T13:21:58.509Z,16.13
2019-04-30T13:23:04.418Z,14.13
2019-04-30T13:24:11.237Z,15.70
2019-04-30T13:25:29.504Z,13.97
2019-04-30T13:26:28.489Z,14.57
2019-04-30T13:27:37.716Z,14.70
2019-04-30T13:28:55.323Z,14.80
2019-04-30T13:30:08.375Z,15.73
2019-04-30T13:31:15.461Z,14.53
2019-04-30T13:32:30.160Z,14.60
2019-04-30T13:33:51.559Z,15.40
2019-04-30T13:35:01.090Z,15.30
2019-04-30T13:36:08.758Z,15.40
2019-04-30T13:37:15.706Z,14.40
2019-04-30T13:38:45.172Z,14.90
2019-04-30T13:39:53.119Z,15.20
2019-04-30T13:41:15.362Z,15.13
2019-04-30T13:42:34.848Z,15.10
2019-04-30T13:43:59.855Z,14.00
2019-04-30T13:45:07.560Z,15.10
2019-04-30T13:46:14.996Z,14.30
2019-04-30T13:47:21.747Z,14.27
2019-04-30T13:48:29.052Z,14.83
2019-04-30T13:49:36.035Z,14.37
2019-04-30T13:50:43.107Z,15.70
2019-04-30T13:51:50.216Z,14.90
2019-04-30T13:52:58.799Z,15.10
2019-04-30T13:54:05.958Z,15.90
2019-04-30T13:55:13.566Z,14.97
2019-04-30T13:56:23.139Z,15.27
2019-04-30T13:57:29.992Z,15.73
2019-04-30T13:58:36.733Z,15.73
2019-04-30T13:59:43.479Z,14.20
2019-04-30T14:00:50.950Z,14.33
2019-04-30T14:01:58.841Z,15.17
2019-04-30T14:03:20.505Z,14.53
2019-04-30T14:04:46.201Z,15.40
2019-04-30T14:05:53.009Z,14.60
2019-04-30T14:07:18.047Z,15.93
2019-04-30T14:08:39.477Z,14.70
2019-04-30T14:09:46.645Z,15.40
2019-04-30T14:10:53.497Z,15.67
2019-04-30T14:12:00.697Z,14.37
2019-04-30T14:13:08.165Z,15.53
2019-04-30T14:14:14.918Z,15.67
2019-04-30T14:15:21.857Z,15.23
2019-04-30T14:16:28.640Z,16.20
2019-04-30T14:17:35.866Z,15.07
2019-04-30T14:18:42.936Z,14.47
2019-04-30T14:19:50.139Z,15.60
2019-04-30T14:21:00.765Z,14.60
2019-04-30T14:22:08.828Z,14.90
2019-04-30T14:23:15.626Z,14.97
2019-04-30T14:24:22.408Z,16.37
2019-04-30T14:25:29.947Z,14.20
2019-04-30T14:26:36.728Z,15.00
2019-04-30T14:27:52.280Z,14.87
2019-04-30T14:28:52.399Z,15.20
2019-04-30T14:29:59.891Z,15.53
2019-04-30T14:31:06.876Z,16.93
2019-04-30T14:32:14.055Z,15.27
2019-04-30T14:33:26.283Z,14.33
2019-04-30T14:34:29.879Z,16.63
2019-04-30T14:35:38.616Z,16.50
2019-04-30T14:36:45.741Z,14.43
2019-04-30T14:37:53.049Z,14.37
2019-04-30T14:39:13.483Z,15.53
2019-04-30T14:40:12.759Z,15.40
2019-04-30T14:41:18.908Z,14.97
2019-04-30T14:42:27.103Z,15.93
2019-04-30T14:43:42.847Z,16.27
2019-04-30T14:44:53.112Z,15.60
2019-04-30T14:46:32.195Z,15.17
2019-04-30T14:48:05.432Z,15.80
2019-04-30T14:49:31.266Z,15.60
2019-04-30T14:50:39.272Z,14.53
2019-04-30T14:51:46.504Z,15.30